Morozovsk, Russia
Current Conditions -  °F | °C
As of 7:00 PM on Wednesday 28 Jan 2015 (Local Time) from URWW Reporting Station
Light Snow Light Snow  
Wind Chill:   Ceiling: 700
Heat Index: 19°   Visibility: 6mi
Dew Point: 18°   Wind: 11mph
Humidity: 93%   Direction: 70°ENE
Pressure: 30.09"   Gusts: NA
Location:  48.35°N, 41.83°E
Report Text: URWW 281600Z 07005MPS 9999 -SG OVC007 M07/M08 Q1019 NOSIG RMK11810260
Loading
Personal Weather Stations






























Interactive Weather Map New forecast layout! Learn more

10-Day Weather Forecast

Advertisements
Track Severe Weather on mobile